Time;durP1;ratioP1;P1;durP2;ratioP2;P2;SDS_P1;SDS_P2;PMS_P1;PMS_P2;Temp;Humidity;BMP_temperature;BMP_pressure;BME280_temperature;BME280_humidity;BME280_pressure;Samples;Min_cycle;Max_cycle;Signal;HPM_P1;HPM_P2
2022/07/10 00:01:37;;;;;;;27.83;5.00;;;12.60;99.90;;;;;;4954831;29;20027;-69
2022/07/10 00:04:05;;;;;;;22.55;4.47;;;12.80;99.90;;;;;;4954850;29;20399;-70
2022/07/10 00:06:32;;;;;;;17.77;3.92;;;12.90;99.90;;;;;;4954501;29;20541;-70
2022/07/10 00:08:59;;;;;;;22.92;4.47;;;13.10;99.90;;;;;;4954741;29;20027;-70
2022/07/10 00:11:27;;;;;;;24.52;4.85;;;13.10;99.90;;;;;;4954627;29;20098;-69
2022/07/10 00:13:54;;;;;;;25.40;5.88;;;12.90;99.90;;;;;;4954598;29;20333;-70
2022/07/10 00:16:21;;;;;;;25.15;4.30;;;12.70;99.90;;;;;;4954571;29;20106;-72
2022/07/10 00:18:49;;;;;;;25.27;4.68;;;12.50;99.90;;;;;;4954502;29;20109;-73
2022/07/10 00:21:16;;;;;;;25.23;5.88;;;12.40;99.90;;;;;;4954472;29;20081;-71
2022/07/10 00:23:44;;;;;;;23.35;4.60;;;12.40;99.90;;;;;;4954717;29;20110;-70
2022/07/10 00:26:11;;;;;;;21.42;3.90;;;12.40;99.90;;;;;;4954621;29;20094;-70
2022/07/10 00:28:38;;;;;;;25.23;4.53;;;12.40;99.90;;;;;;4937043;29;20031;-69
2022/07/10 00:31:06;;;;;;;21.13;4.05;;;12.40;99.90;;;;;;4954566;29;20098;-70
2022/07/10 00:33:33;;;;;;;21.77;4.35;;;12.60;99.90;;;;;;4954467;29;20063;-69
2022/07/10 00:36:00;;;;;;;20.08;3.60;;;12.70;99.90;;;;;;4937203;29;20019;-70
2022/07/10 00:38:28;;;;;;;19.60;4.60;;;12.80;99.90;;;;;;4954381;29;20035;-69
2022/07/10 00:40:55;;;;;;;18.10;3.80;;;13.00;99.90;;;;;;4954506;29;20055;-69
2022/07/10 00:43:22;;;;;;;23.83;3.63;;;13.30;99.90;;;;;;4954451;29;20031;-70
2022/07/10 00:45:50;;;;;;;23.63;4.25;;;13.60;99.90;;;;;;4954493;29;20056;-70
2022/07/10 00:48:17;;;;;;;26.00;4.55;;;13.80;99.90;;;;;;4954307;29;20369;-70
2022/07/10 00:50:46;;;;;;;12.82;2.50;;;13.90;99.90;;;;;;4954442;29;20024;-71
2022/07/10 00:53:14;;;;;;;18.65;3.22;;;14.10;99.90;;;;;;4954361;29;20019;-71
2022/07/10 00:55:43;;;;;;;11.98;2.88;;;14.10;99.90;;;;;;4954358;28;20047;-70
2022/07/10 00:58:13;;;;;;;16.60;3.35;;;14.10;99.90;;;;;;4957933;29;20023;-70
2022/07/10 01:00:41;;;;;;;16.23;3.38;;;14.00;99.90;;;;;;4940801;29;20031;-71
2022/07/10 01:03:08;;;;;;;21.55;3.85;;;13.90;99.90;;;;;;4940648;29;20038;-70
2022/07/10 01:05:35;;;;;;;18.42;3.35;;;13.80;99.90;;;;;;4940432;29;20531;-70
2022/07/10 01:08:03;;;;;;;23.60;3.80;;;13.90;99.90;;;;;;4957763;29;20046;-71
2022/07/10 01:10:31;;;;;;;19.02;4.38;;;14.00;99.90;;;;;;4957895;29;20035;-71
2022/07/10 01:12:58;;;;;;;18.63;3.38;;;14.00;99.90;;;;;;4957650;29;20031;-71
2022/07/10 01:15:26;;;;;;;13.93;3.00;;;14.00;99.90;;;;;;4957713;29;20027;-71
2022/07/10 01:17:53;;;;;;;16.75;3.58;;;14.10;99.90;;;;;;4940359;29;20033;-70
2022/07/10 01:20:20;;;;;;;13.70;2.53;;;14.20;99.90;;;;;;4957825;29;20110;-70
2022/07/10 01:22:48;;;;;;;12.02;2.58;;;14.40;99.90;;;;;;4957639;29;20539;-69
2022/07/10 01:25:15;;;;;;;15.40;3.72;;;14.70;99.90;;;;;;4957484;29;20102;-70
2022/07/10 01:27:43;;;;;;;13.85;2.60;;;14.90;99.90;;;;;;4940039;29;20121;-72
2022/07/10 01:30:11;;;;;;;15.63;2.80;;;15.00;99.90;;;;;;4957470;29;20101;-71
2022/07/10 01:32:40;;;;;;;19.73;2.92;;;15.00;99.90;;;;;;4957784;29;20380;-72
2022/07/10 01:35:08;;;;;;;13.18;3.03;;;15.00;99.90;;;;;;4939938;29;20102;-71
2022/07/10 01:37:35;;;;;;;11.27;2.10;;;15.20;99.90;;;;;;4957323;29;20023;-71
2022/07/10 01:40:03;;;;;;;18.58;2.65;;;15.00;99.90;;;;;;4957176;29;20058;-71
2022/07/10 01:42:30;;;;;;;9.13;2.10;;;15.00;99.90;;;;;;4957594;29;20023;-70
2022/07/10 01:44:58;;;;;;;9.25;1.83;;;15.10;99.90;;;;;;4939806;29;20054;-71
2022/07/10 01:47:27;;;;;;;8.02;1.52;;;15.10;99.90;;;;;;4957126;29;20038;-70
2022/07/10 01:49:55;;;;;;;10.70;2.25;;;14.80;99.90;;;;;;4939781;29;20050;-71
2022/07/10 01:52:22;;;;;;;11.88;2.03;;;14.60;99.90;;;;;;4957080;29;20020;-71
2022/07/10 01:54:50;;;;;;;9.30;1.77;;;14.40;99.90;;;;;;4957285;29;20488;-72
2022/07/10 01:57:17;;;;;;;15.60;2.97;;;14.30;99.90;;;;;;4939706;29;20046;-72
2022/07/10 01:59:46;;;;;;;18.02;3.10;;;14.30;99.90;;;;;;4939685;29;20023;-72
2022/07/10 02:02:13;;;;;;;21.58;2.78;;;14.10;99.90;;;;;;4956971;29;20023;-73
2022/07/10 02:04:41;;;;;;;21.30;3.42;;;13.90;99.90;;;;;;4939437;29;20024;-72
2022/07/10 02:07:16;;;;;;;15.68;3.25;;;13.70;99.90;;;;;;4956412;28;20492;-73
2022/07/10 02:09:45;;;;;;;21.80;3.13;;;13.70;99.90;;;;;;4939713;29;20031;-73
2022/07/10 02:12:14;;;;;;;17.73;3.05;;;13.60;99.90;;;;;;4939453;29;20101;-73
2022/07/10 02:14:42;;;;;;;18.95;3.22;;;13.50;99.90;;;;;;4939243;29;20392;-73
2022/07/10 02:17:11;;;;;;;22.65;3.67;;;13.50;99.90;;;;;;4956549;29;20026;-71
2022/07/10 02:19:38;;;;;;;10.88;2.38;;;13.50;99.90;;;;;;4939209;29;20027;-72
2022/07/10 02:22:05;;;;;;;13.10;2.33;;;13.40;99.90;;;;;;4939190;29;20027;-73
2022/07/10 02:24:33;;;;;;;11.48;1.83;;;13.50;99.90;;;;;;4939178;29;20027;-71
2022/07/10 02:27:00;;;;;;;9.77;1.65;;;14.00;99.90;;;;;;4938997;29;20038;-71
2022/07/10 02:29:27;;;;;;;13.32;2.22;;;14.40;99.90;;;;;;4956421;29;20035;-73
2022/07/10 02:31:56;;;;;;;11.15;1.77;;;15.00;99.90;;;;;;4956300;29;20058;-73
2022/07/10 02:34:24;;;;;;;5.03;1.45;;;15.20;99.90;;;;;;4939016;29;20027;-71
2022/07/10 02:36:51;;;;;;;9.55;1.50;;;15.30;99.90;;;;;;4956221;29;20088;-71
2022/07/10 02:39:21;;;;;;;7.15;1.17;;;15.40;99.90;;;;;;4956194;29;20027;-71
2022/07/10 02:41:49;;;;;;;9.52;1.50;;;15.40;99.90;;;;;;4956356;29;20023;-72
2022/07/10 02:44:17;;;;;;;9.10;1.83;;;15.40;99.90;;;;;;4956038;29;20062;-71
2022/07/10 02:46:44;;;;;;;9.10;1.95;;;15.80;99.90;;;;;;4955992;29;20255;-74
2022/07/10 02:49:11;;;;;;;14.75;2.47;;;15.80;99.90;;;;;;4937654;29;20141;-73
2022/07/10 02:51:39;;;;;;;10.65;1.88;;;15.70;99.90;;;;;;4938567;29;20106;-74
2022/07/10 02:54:07;;;;;;;9.88;1.92;;;15.60;99.90;;;;;;4955937;29;20407;-74
2022/07/10 02:56:36;;;;;;;12.55;2.20;;;15.40;99.90;;;;;;4938442;29;20456;-72
2022/07/10 02:59:03;;;;;;;7.75;2.28;;;15.30;99.90;;;;;;4938536;29;20114;-73
2022/07/10 03:01:30;;;;;;;11.27;2.10;;;15.50;99.90;;;;;;4955766;29;20465;-73
2022/07/10 03:03:58;;;;;;;16.65;2.65;;;15.70;99.90;;;;;;4938368;29;20027;-73
2022/07/10 03:06:25;;;;;;;11.35;1.50;;;15.70;99.90;;;;;;4938125;29;20452;-73
2022/07/10 03:08:53;;;;;;;8.73;1.40;;;15.70;99.90;;;;;;4938349;29;20038;-74
2022/07/10 03:11:20;;;;;;;6.95;1.15;;;15.90;99.90;;;;;;4955540;29;20026;-73
2022/07/10 03:13:47;;;;;;;5.35;1.38;;;16.00;99.90;;;;;;4955687;29;20030;-73
2022/07/10 03:16:15;;;;;;;4.15;1.00;;;16.10;99.90;;;;;;4955506;29;20027;-73
2022/07/10 03:18:42;;;;;;;5.68;1.10;;;16.20;99.90;;;;;;4955305;28;20460;-72
2022/07/10 03:21:09;;;;;;;7.80;1.50;;;16.00;99.90;;;;;;4955019;29;20419;-72
2022/07/10 03:23:39;;;;;;;7.38;1.75;;;16.00;99.90;;;;;;4955387;29;20488;-72
2022/07/10 03:26:07;;;;;;;11.07;1.80;;;15.80;99.90;;;;;;4937994;29;20031;-73
2022/07/10 03:28:35;;;;;;;8.82;1.80;;;15.60;99.90;;;;;;4955148;29;20050;-73
2022/07/10 03:31:03;;;;;;;6.88;1.20;;;15.50;99.90;;;;;;4955228;29;20016;-73
2022/07/10 03:33:30;;;;;;;8.63;1.65;;;15.40;99.90;;;;;;4955157;29;20074;-74
2022/07/10 03:35:57;;;;;;;7.22;1.20;;;15.70;99.90;;;;;;4955125;29;20023;-74
2022/07/10 03:38:25;;;;;;;7.93;1.27;;;15.70;99.90;;;;;;4937873;29;20042;-74
2022/07/10 03:40:52;;;;;;;8.35;1.33;;;15.60;99.90;;;;;;4955015;29;20031;-74
2022/07/10 03:43:19;;;;;;;5.75;1.35;;;15.70;99.90;;;;;;4937691;29;20128;-74
2022/07/10 03:45:47;;;;;;;6.55;0.95;;;16.00;99.90;;;;;;4937772;29;20027;-74
2022/07/10 03:48:14;;;;;;;5.82;1.13;;;16.00;99.90;;;;;;4937660;29;20114;-74
2022/07/10 03:50:41;;;;;;;5.95;1.35;;;16.10;99.90;;;;;;4955005;29;20023;-74
2022/07/10 03:53:09;;;;;;;8.60;1.60;;;16.30;99.90;;;;;;4937708;29;20075;-74
2022/07/10 03:55:36;;;;;;;9.60;2.28;;;16.50;99.90;;;;;;4954803;29;20015;-74
2022/07/10 03:58:04;;;;;;;7.05;1.23;;;16.50;99.90;;;;;;4954892;29;20034;-74
2022/07/10 04:00:32;;;;;;;6.93;1.25;;;16.40;99.90;;;;;;4955041;29;20031;-74
2022/07/10 04:03:02;;;;;;;8.15;1.70;;;16.30;99.90;;;;;;4954949;29;20024;-74
2022/07/10 04:05:30;;;;;;;7.90;1.90;;;16.30;99.90;;;;;;4954699;29;20042;-75
2022/07/10 04:08:00;;;;;;;8.65;1.33;;;16.40;99.90;;;;;;4954728;29;20038;-73
2022/07/10 04:10:28;;;;;;;6.70;1.38;;;16.30;99.90;;;;;;4954790;29;20102;-74
2022/07/10 04:12:56;;;;;;;7.05;1.38;;;16.20;99.90;;;;;;4954707;29;20373;-73
2022/07/10 04:15:24;;;;;;;7.07;1.35;;;15.90;99.90;;;;;;4954752;29;20108;-75
2022/07/10 04:17:52;;;;;;;5.60;1.10;;;15.90;99.90;;;;;;4954662;29;20047;-74
2022/07/10 04:20:21;;;;;;;8.43;1.75;;;16.10;99.90;;;;;;4954714;29;20031;-74
2022/07/10 04:22:49;;;;;;;5.95;1.40;;;16.30;99.90;;;;;;4954630;29;20106;-74
2022/07/10 04:25:16;;;;;;;5.20;1.33;;;16.40;99.90;;;;;;4955041;29;20073;-74
2022/07/10 04:27:44;;;;;;;6.20;1.50;;;16.50;99.90;;;;;;4954369;29;20023;-74
2022/07/10 04:30:11;;;;;;;7.60;1.38;;;16.70;99.90;;;;;;4937271;28;20437;-73
2022/07/10 04:32:39;;;;;;;7.45;1.35;;;16.80;99.90;;;;;;4958924;29;20035;-73
2022/07/10 04:35:06;;;;;;;7.57;1.63;;;16.90;99.90;;;;;;4940994;29;20029;-73
2022/07/10 04:37:34;;;;;;;7.30;1.15;;;16.70;99.90;;;;;;4958419;29;20475;-74
2022/07/10 04:40:01;;;;;;;9.13;1.52;;;16.50;99.90;;;;;;4958275;29;20041;-73
2022/07/10 04:42:29;;;;;;;8.82;1.75;;;16.20;99.90;;;;;;4958339;29;20366;-74
2022/07/10 04:44:56;;;;;;;9.43;2.05;;;15.90;99.90;;;;;;4958264;29;20026;-73
2022/07/10 04:47:23;;;;;;;8.02;1.83;;;15.50;99.90;;;;;;4940971;29;20082;-72
2022/07/10 04:49:51;;;;;;;8.65;1.67;;;14.80;99.90;;;;;;4958074;29;20102;-72
2022/07/10 04:52:18;;;;;;;7.13;1.50;;;14.30;99.90;;;;;;4958207;29;20453;-73
2022/07/10 04:54:45;;;;;;;13.57;2.47;;;13.90;99.90;;;;;;4957977;29;20098;-73
2022/07/10 04:57:13;;;;;;;10.63;1.90;;;13.70;99.90;;;;;;4958094;29;20062;-74
2022/07/10 04:59:40;;;;;;;10.68;2.17;;;13.50;99.90;;;;;;4940607;29;20399;-74
2022/07/10 05:02:08;;;;;;;10.95;1.90;;;13.50;99.90;;;;;;4958067;29;20055;-74
2022/07/10 05:04:35;;;;;;;11.13;2.78;;;13.30;99.90;;;;;;4940473;29;20440;-73
2022/07/10 05:07:02;;;;;;;10.73;2.42;;;13.30;99.90;;;;;;4957894;29;20043;-73
2022/07/10 05:09:30;;;;;;;8.43;1.90;;;13.40;99.90;;;;;;4957776;29;20389;-73
2022/07/10 05:11:57;;;;;;;9.43;1.80;;;13.40;99.90;;;;;;4957979;29;20024;-73
2022/07/10 05:14:25;;;;;;;8.10;2.53;;;13.40;99.90;;;;;;4940521;29;20027;-75
2022/07/10 05:16:53;;;;;;;12.25;2.60;;;13.50;99.90;;;;;;4957857;29;20034;-74
2022/07/10 05:19:20;;;;;;;11.98;3.13;;;13.60;99.90;;;;;;4957746;29;20028;-74
2022/07/10 05:21:47;;;;;;;12.60;2.67;;;13.70;99.90;;;;;;4957750;29;20031;-74
2022/07/10 05:24:15;;;;;;;10.40;2.60;;;13.70;99.90;;;;;;4957658;29;20027;-73
2022/07/10 05:26:42;;;;;;;10.65;2.67;;;13.80;99.90;;;;;;4957681;29;20039;-73
2022/07/10 05:29:09;;;;;;;12.55;2.42;;;13.80;99.90;;;;;;4940516;29;20420;-74
2022/07/10 05:31:37;;;;;;;12.13;2.65;;;13.90;99.90;;;;;;4958367;29;20043;-74
2022/07/10 05:34:05;;;;;;;8.15;2.00;;;13.80;99.90;;;;;;4940701;29;20035;-74
2022/07/10 05:36:32;;;;;;;9.75;2.00;;;13.80;99.90;;;;;;4957540;29;20102;-73
2022/07/10 05:39:00;;;;;;;12.15;1.73;;;13.90;99.90;;;;;;4957464;29;20033;-74
2022/07/10 05:41:27;;;;;;;10.30;2.42;;;14.00;99.90;;;;;;4957222;29;20023;-73
2022/07/10 05:43:55;;;;;;;9.05;1.70;;;14.00;99.90;;;;;;4956878;28;20369;-74
2022/07/10 05:46:22;;;;;;;7.72;1.33;;;13.90;99.90;;;;;;4939932;29;20031;-74
2022/07/10 05:48:50;;;;;;;4.45;0.80;;;13.90;99.90;;;;;;4939929;29;20445;-74
2022/07/10 05:51:17;;;;;;;5.80;1.35;;;13.90;99.90;;;;;;4957487;29;20041;-74
2022/07/10 05:53:44;;;;;;;7.38;1.35;;;13.80;99.90;;;;;;4957662;29;20499;-74
2022/07/10 05:56:12;;;;;;;4.03;1.10;;;13.80;99.90;;;;;;4957139;29;20019;-74
2022/07/10 05:58:42;;;;;;;6.93;1.83;;;13.90;99.90;;;;;;4956982;29;20058;-74
2022/07/10 06:01:09;;;;;;;3.25;0.80;;;14.00;99.90;;;;;;4957308;29;20029;-73
2022/07/10 06:03:36;;;;;;;6.65;1.20;;;14.20;99.90;;;;;;4957634;29;20091;-74
2022/07/10 06:06:04;;;;;;;8.10;1.58;;;14.40;99.90;;;;;;4957067;29;20086;-74
2022/07/10 06:08:31;;;;;;;6.03;1.20;;;14.50;99.90;;;;;;4958065;29;20027;-75
2022/07/10 06:10:58;;;;;;;7.85;1.05;;;14.60;99.90;;;;;;4957423;29;20043;-74
2022/07/10 06:13:26;;;;;;;6.72;1.55;;;14.70;99.90;;;;;;4941225;29;20019;-75
2022/07/10 06:15:53;;;;;;;3.90;1.10;;;14.60;99.90;;;;;;4957766;29;20446;-75
2022/07/10 06:18:20;;;;;;;7.18;1.70;;;14.70;99.90;;;;;;4957498;29;20102;-73
2022/07/10 06:20:48;;;;;;;7.68;1.77;;;14.70;99.90;;;;;;4956923;29;20024;-72
2022/07/10 06:23:15;;;;;;;10.07;2.05;;;14.50;99.90;;;;;;4956403;29;20019;-71
2022/07/10 06:25:42;;;;;;;9.82;1.35;;;14.20;99.90;;;;;;4956602;29;20027;-70
2022/07/10 06:28:10;;;;;;;10.93;2.03;;;14.00;99.90;;;;;;4956225;29;20023;-71
2022/07/10 06:30:37;;;;;;;8.23;1.55;;;13.90;99.90;;;;;;4956321;29;20019;-72
2022/07/10 06:33:04;;;;;;;9.52;1.85;;;13.70;99.90;;;;;;4956093;29;20031;-71
2022/07/10 06:35:31;;;;;;;8.70;1.33;;;13.50;99.90;;;;;;4956217;29;20540;-70
2022/07/10 06:37:59;;;;;;;6.85;1.15;;;13.30;99.90;;;;;;4938772;29;20460;-71
2022/07/10 06:40:26;;;;;;;10.93;2.17;;;13.20;99.90;;;;;;4956093;29;20027;-71
2022/07/10 06:42:54;;;;;;;9.65;2.10;;;13.10;99.90;;;;;;4956073;29;20055;-68
2022/07/10 06:45:21;;;;;;;12.45;1.98;;;12.90;99.90;;;;;;4955957;29;20019;-71
2022/07/10 06:48:01;;;;;;;8.88;1.70;;;12.80;99.90;;;;;;4955826;29;20019;-69
2022/07/10 06:50:32;;;;;;;8.82;2.40;;;12.60;99.90;;;;;;4956007;29;20522;-70
2022/07/10 06:53:00;;;;;;;11.52;2.13;;;12.50;99.90;;;;;;4938510;29;20031;-71
2022/07/10 06:55:28;;;;;;;13.70;3.65;;;12.60;99.90;;;;;;4954921;28;20055;-71
2022/07/10 06:57:56;;;;;;;11.40;3.38;;;12.50;99.90;;;;;;4955700;29;20419;-72
2022/07/10 07:00:24;;;;;;;10.55;2.08;;;12.50;99.90;;;;;;4955646;29;20030;-73
2022/07/10 07:02:51;;;;;;;10.52;2.88;;;12.50;99.90;;;;;;4955709;29;20384;-72
2022/07/10 07:05:19;;;;;;;8.65;2.25;;;12.40;99.90;;;;;;4955508;29;20113;-75
2022/07/10 07:07:46;;;;;;;12.60;2.65;;;12.50;99.90;;;;;;4955597;29;20035;-73
2022/07/10 07:10:13;;;;;;;13.82;3.47;;;12.40;99.90;;;;;;4955644;29;20020;-73
2022/07/10 07:12:41;;;;;;;12.73;2.95;;;12.40;99.90;;;;;;4955527;29;20019;-74
2022/07/10 07:15:08;;;;;;;13.85;3.20;;;12.40;99.90;;;;;;4955561;29;20019;-73
2022/07/10 07:18:07;;;;;;;7.55;1.98;;;12.40;99.90;;;;;;4955790;29;20023;-73
2022/07/10 07:23:21;;;;;;;10.77;2.58;;;12.30;99.90;;;;;;4955767;29;20034;-73
2022/07/10 07:25:49;;;;;;;10.18;2.80;;;12.20;99.90;;;;;;4955685;29;20035;-73
2022/07/10 07:28:18;;;;;;;13.10;2.78;;;12.10;99.90;;;;;;4955205;29;20055;-73
2022/07/10 07:30:46;;;;;;;10.05;2.50;;;12.10;99.90;;;;;;4955390;29;20103;-73
2022/07/10 07:33:14;;;;;;;10.38;2.13;;;12.10;99.90;;;;;;4955712;29;20024;-73
2022/07/10 07:35:42;;;;;;;6.85;2.60;;;12.10;99.90;;;;;;4955725;29;20020;-73
2022/07/10 07:38:10;;;;;;;11.98;2.33;;;12.20;99.90;;;;;;4955423;29;20476;-74
2022/07/10 07:40:37;;;;;;;13.88;2.90;;;12.20;99.90;;;;;;4938285;29;20024;-74
2022/07/10 07:43:05;;;;;;;12.10;3.80;;;12.20;99.90;;;;;;4938086;29;20042;-74
2022/07/10 07:45:32;;;;;;;18.23;4.25;;;12.20;99.90;;;;;;4937983;29;20441;-74
2022/07/10 07:48:01;;;;;;;11.57;3.17;;;12.20;99.90;;;;;;4955210;29;20387;-74
2022/07/10 07:50:34;;;;;;;12.15;3.25;;;12.10;99.90;;;;;;4955352;29;20054;-73
2022/07/10 07:53:03;;;;;;;14.50;4.32;;;12.10;99.90;;;;;;4955520;29;20049;-74
2022/07/10 07:55:32;;;;;;;14.57;3.60;;;12.10;99.90;;;;;;4955556;29;20015;-74
2022/07/10 07:58:02;;;;;;;17.08;4.15;;;12.10;99.90;;;;;;4938329;29;20404;-73
2022/07/10 08:00:31;;;;;;;16.60;4.90;;;12.10;99.90;;;;;;4956008;29;20038;-74
2022/07/10 08:03:00;;;;;;;14.63;4.38;;;12.10;99.90;;;;;;4937984;29;20126;-74
2022/07/10 08:05:28;;;;;;;19.17;5.03;;;12.10;99.90;;;;;;4954446;29;20086;-73
2022/07/10 08:07:58;;;;;;;17.67;6.13;;;12.20;99.90;;;;;;4937530;29;20040;-73
2022/07/10 08:10:27;;;;;;;10.82;3.88;;;12.20;99.90;;;;;;4955820;29;20027;-73
2022/07/10 08:12:54;;;;;;;11.73;3.47;;;12.20;99.90;;;;;;4956257;29;20034;-75
2022/07/10 08:15:23;;;;;;;17.05;3.03;;;12.10;99.90;;;;;;4956589;29;20026;-75
2022/07/10 08:17:57;;;;;;;13.88;2.83;;;12.10;99.90;;;;;;4955406;29;20063;-74
2022/07/10 08:20:26;;;;;;;13.10;2.95;;;12.10;99.90;;;;;;4955914;29;20036;-74
2022/07/10 08:22:53;;;;;;;12.65;3.08;;;12.10;99.90;;;;;;4955560;29;20031;-74
2022/07/10 08:25:21;;;;;;;10.88;2.83;;;12.10;99.90;;;;;;4956437;29;20380;-74
2022/07/10 08:27:49;;;;;;;8.88;2.20;;;12.00;99.90;;;;;;4956467;29;20035;-74
2022/07/10 08:30:16;;;;;;;10.73;2.97;;;12.10;99.90;;;;;;4940257;29;20047;-74
2022/07/10 08:32:43;;;;;;;15.93;3.65;;;12.00;99.90;;;;;;4956164;29;20027;-74
2022/07/10 08:35:13;;;;;;;11.07;2.83;;;12.00;99.90;;;;;;4957649;29;20023;-74
2022/07/10 08:37:45;;;;;;;10.50;2.78;;;12.00;99.90;;;;;;4939084;29;20046;-74
2022/07/10 08:40:15;;;;;;;11.80;2.75;;;12.00;99.90;;;;;;4957434;29;20078;-74
2022/07/10 08:42:46;;;;;;;8.05;2.40;;;12.00;99.90;;;;;;4957184;29;20028;-73
2022/07/10 08:45:15;;;;;;;13.65;2.92;;;11.90;99.90;;;;;;4956148;29;20102;-74
2022/07/10 08:47:44;;;;;;;9.77;2.85;;;11.90;99.90;;;;;;4938320;29;20023;-74
2022/07/10 08:50:22;;;;;;;14.30;3.30;;;11.90;99.90;;;;;;4954635;29;20035;-74
2022/07/10 08:53:13;;;;;;;7.82;2.55;;;11.90;99.90;;;;;;4955206;29;20110;-75
2022/07/10 08:55:40;;;;;;;9.57;2.80;;;11.80;99.90;;;;;;4943505;29;20102;-75
2022/07/10 08:58:10;;;;;;;10.18;2.90;;;11.80;99.90;;;;;;4937479;29;20141;-75
2022/07/10 09:00:37;;;;;;;8.88;2.80;;;11.80;99.90;;;;;;4954389;29;20023;-75
2022/07/10 09:03:05;;;;;;;11.05;2.55;;;11.80;99.90;;;;;;4937030;29;20487;-75
2022/07/10 09:05:32;;;;;;;9.60;3.20;;;11.80;99.90;;;;;;4936863;29;20051;-75
2022/07/10 09:08:00;;;;;;;14.10;4.18;;;11.80;99.90;;;;;;4954658;29;20031;-75
2022/07/10 09:10:29;;;;;;;10.02;3.25;;;11.70;99.90;;;;;;4954125;29;20031;-75
2022/07/10 09:13:03;;;;;;;8.82;2.85;;;11.70;99.90;;;;;;4954630;29;20019;-75
2022/07/10 09:15:34;;;;;;;9.82;3.15;;;11.70;99.90;;;;;;4954376;29;20062;-75
2022/07/10 09:18:07;;;;;;;10.48;2.80;;;11.60;99.90;;;;;;4955977;28;20324;-75
2022/07/10 09:20:40;;;;;;;8.23;2.75;;;11.50;99.90;;;;;;4940357;29;20447;-77
2022/07/10 09:23:20;;;;;;;8.85;2.50;;;11.40;99.90;;;;;;4957675;29;20027;-75
2022/07/10 09:25:48;;;;;;;7.45;2.58;;;11.40;99.90;;;;;;4957416;29;20424;-75
2022/07/10 09:28:19;;;;;;;10.30;2.92;;;11.40;99.90;;;;;;4957216;29;20479;-75
2022/07/10 09:30:48;;;;;;;5.60;2.55;;;11.40;99.90;;;;;;4957472;29;20074;-75
2022/07/10 09:33:25;;;;;;;7.93;3.22;;;11.40;99.90;;;;;;4940032;29;20387;-75
2022/07/10 09:36:11;;;;;;;6.63;2.72;;;11.40;99.90;;;;;;4957445;29;20392;-75
2022/07/10 09:38:45;;;;;;;9.38;3.03;;;11.40;99.90;;;;;;4957263;29;20027;-75
2022/07/10 09:41:29;;;;;;;12.65;3.40;;;11.40;99.90;;;;;;4957154;29;20111;-74
2022/07/10 09:44:01;;;;;;;9.77;3.42;;;11.40;99.90;;;;;;4957265;29;20031;-75
2022/07/10 09:46:29;;;;;;;12.23;3.65;;;11.50;99.90;;;;;;4940025;29;20114;-75
2022/07/10 09:49:14;;;;;;;10.93;3.58;;;11.50;99.90;;;;;;4939751;29;20086;-75
2022/07/10 09:51:46;;;;;;;10.50;3.10;;;11.50;99.90;;;;;;4939922;29;20432;-75
2022/07/10 09:54:14;;;;;;;8.68;3.17;;;11.60;99.90;;;;;;4940703;29;20062;-75
2022/07/10 09:56:47;;;;;;;14.50;2.72;;;11.60;99.90;;;;;;4957020;29;20074;-75
2022/07/10 09:59:19;;;;;;;14.85;3.63;;;11.70;99.90;;;;;;4939649;29;20032;-75
2022/07/10 10:01:48;;;;;;;9.23;2.50;;;11.80;99.90;;;;;;4957288;29;20027;-75
2022/07/10 10:04:18;;;;;;;10.07;2.43;;;11.80;99.90;;;;;;4939687;29;20062;-75
2022/07/10 10:06:52;;;;;;;15.13;3.10;;;11.80;99.90;;;;;;4939608;29;20051;-75
2022/07/10 10:09:32;;;;;;;9.82;2.28;;;11.80;99.90;;;;;;4939596;29;20041;-75
2022/07/10 10:12:07;;;;;;;12.75;2.88;;;11.90;99.90;;;;;;4957028;29;20024;-75
2022/07/10 10:14:36;;;;;;;13.13;3.22;;;11.80;99.90;;;;;;4957255;29;20028;-75
2022/07/10 10:17:05;;;;;;;11.43;3.50;;;11.80;99.90;;;;;;4957105;29;20384;-75
2022/07/10 10:22:19;;;;;;;12.38;3.38;;;11.80;99.90;;;;;;4957497;29;20026;-74
2022/07/10 10:24:48;;;;;;;8.52;2.70;;;11.80;99.90;;;;;;4939503;29;20031;-75
2022/07/10 10:27:16;;;;;;;10.27;2.67;;;11.70;99.90;;;;;;4939721;29;20031;-75
2022/07/10 10:29:45;;;;;;;10.38;2.50;;;11.60;99.90;;;;;;4939861;29;20504;-76
2022/07/10 10:32:12;;;;;;;9.25;2.40;;;11.60;99.90;;;;;;4957434;29;20028;-76
2022/07/10 10:34:45;;;;;;;9.45;3.22;;;11.50;99.90;;;;;;4939883;29;20031;-76
2022/07/10 10:37:36;;;;;;;13.32;3.10;;;11.50;99.90;;;;;;4957396;29;20020;-75
2022/07/10 10:40:05;;;;;;;11.82;2.45;;;11.50;99.90;;;;;;4956660;29;20024;-76
2022/07/10 10:42:42;;;;;;;11.63;2.63;;;11.50;99.90;;;;;;4939304;29;20035;-76
2022/07/10 10:45:34;;;;;;;10.93;2.35;;;11.50;99.90;;;;;;4956418;29;20030;-76
2022/07/10 10:48:03;;;;;;;13.57;3.00;;;11.50;99.90;;;;;;4956424;29;20059;-76
2022/07/10 10:50:53;;;;;;;10.20;2.33;;;11.50;99.90;;;;;;4956273;29;20361;-76
2022/07/10 10:53:28;;;;;;;9.15;2.50;;;11.50;99.90;;;;;;4938969;29;20032;-76
2022/07/10 10:56:08;;;;;;;12.65;1.88;;;11.50;99.90;;;;;;4956026;29;20028;-75
2022/07/10 10:58:42;;;;;;;11.07;2.50;;;11.50;99.90;;;;;;4956640;29;20027;-76
2022/07/10 11:01:25;;;;;;;9.05;2.17;;;11.50;99.90;;;;;;4956221;29;20047;-75
2022/07/10 11:04:14;;;;;;;12.82;3.33;;;11.50;99.90;;;;;;4956731;29;20020;-75
2022/07/10 11:06:53;;;;;;;13.18;3.10;;;11.50;99.90;;;;;;4938552;29;20054;-74
2022/07/10 11:09:24;;;;;;;10.35;2.53;;;11.40;99.90;;;;;;4955870;29;20043;-75
2022/07/10 11:12:08;;;;;;;8.98;2.72;;;11.30;99.90;;;;;;4955988;29;20022;-75
2022/07/10 11:14:42;;;;;;;12.32;3.33;;;11.20;99.90;;;;;;4955678;29;20070;-75
2022/07/10 11:17:09;;;;;;;9.77;2.60;;;11.10;99.90;;;;;;4955674;29;20127;-76
2022/07/10 11:19:37;;;;;;;10.48;2.55;;;11.10;99.90;;;;;;4955582;29;20038;-74
2022/07/10 11:22:10;;;;;;;9.73;2.60;;;11.00;99.90;;;;;;4955593;29;20399;-75
2022/07/10 11:24:50;;;;;;;9.52;2.53;;;10.90;99.90;;;;;;4955785;29;20019;-75
2022/07/10 11:27:51;;;;;;;12.30;2.50;;;10.90;99.90;;;;;;4955789;29;20031;-75
2022/07/10 11:30:19;;;;;;;10.27;3.33;;;10.80;99.90;;;;;;4938249;29;20050;-75
2022/07/10 11:32:48;;;;;;;16.17;3.28;;;10.90;99.90;;;;;;4955334;29;20538;-75
2022/07/10 11:35:16;;;;;;;9.25;2.47;;;10.80;99.90;;;;;;4955387;29;20051;-75
2022/07/10 11:37:53;;;;;;;13.73;2.60;;;10.80;99.90;;;;;;4955547;29;20026;-76
2022/07/10 11:40:21;;;;;;;10.90;2.13;;;10.90;99.90;;;;;;4954966;28;20030;-75
2022/07/10 11:42:59;;;;;;;11.45;2.78;;;10.90;99.90;;;;;;4937917;29;20043;-75
2022/07/10 11:45:32;;;;;;;8.57;2.47;;;10.90;99.90;;;;;;4938005;29;20023;-75
2022/07/10 11:48:00;;;;;;;8.48;2.30;;;10.90;99.90;;;;;;4955252;29;20388;-75
2022/07/10 11:50:34;;;;;;;10.93;2.78;;;10.80;99.90;;;;;;4955187;29;20094;-74
2022/07/10 11:53:01;;;;;;;6.60;2.72;;;10.80;99.90;;;;;;4938066;29;20381;-74
2022/07/10 11:55:31;;;;;;;8.38;3.22;;;10.80;99.90;;;;;;4955139;29;20019;-74
2022/07/10 11:57:59;;;;;;;9.50;2.93;;;10.70;99.90;;;;;;4955117;29;20106;-75
2022/07/10 12:00:30;;;;;;;11.75;3.20;;;10.70;99.90;;;;;;4955003;29;20034;-74
2022/07/10 12:03:18;;;;;;;9.88;3.13;;;10.70;99.90;;;;;;4955099;29;20035;-75
2022/07/10 12:05:46;;;;;;;8.48;3.15;;;10.70;99.90;;;;;;4955065;29;20520;-74
2022/07/10 12:08:14;;;;;;;6.05;3.00;;;10.70;99.90;;;;;;4937606;29;20042;-75
2022/07/10 12:10:42;;;;;;;8.88;3.35;;;10.70;99.90;;;;;;4954877;29;20042;-75
2022/07/10 12:13:12;;;;;;;9.57;3.20;;;10.70;99.90;;;;;;4954802;29;20021;-76
2022/07/10 12:15:44;;;;;;;9.98;3.25;;;10.70;99.90;;;;;;4937662;29;20366;-76
2022/07/10 12:18:20;;;;;;;7.72;2.90;;;10.60;99.90;;;;;;4954957;29;20031;-76
2022/07/10 12:20:49;;;;;;;8.13;3.28;;;10.60;99.90;;;;;;4954919;29;20023;-76
2022/07/10 12:23:17;;;;;;;14.48;3.65;;;10.60;99.90;;;;;;4954927;29;20074;-75
2022/07/10 12:25:48;;;;;;;10.05;3.40;;;10.60;99.90;;;;;;4937559;29;20058;-75
2022/07/10 12:28:15;;;;;;;10.93;3.63;;;10.60;99.90;;;;;;4937549;29;20072;-76
2022/07/10 12:30:44;;;;;;;12.70;3.45;;;10.60;99.90;;;;;;4937428;29;20023;-76
2022/07/10 12:33:17;;;;;;;8.20;3.28;;;10.70;99.90;;;;;;4954882;29;20020;-76
2022/07/10 12:35:57;;;;;;;6.38;3.55;;;10.70;99.90;;;;;;4955147;29;20026;-76
2022/07/10 12:38:27;;;;;;;7.45;2.85;;;10.60;99.90;;;;;;4955422;29;20101;-77
2022/07/10 12:41:13;;;;;;;8.18;3.22;;;10.60;99.90;;;;;;4955476;29;20119;-77
2022/07/10 12:43:41;;;;;;;10.43;3.58;;;10.50;99.90;;;;;;4955024;29;20020;-76
2022/07/10 12:46:20;;;;;;;10.82;3.65;;;10.60;99.90;;;;;;4954798;29;20370;-77
2022/07/10 12:49:12;;;;;;;10.35;3.50;;;10.60;99.90;;;;;;4954836;29;20024;-76
2022/07/10 12:51:48;;;;;;;10.48;3.90;;;10.50;99.90;;;;;;4937575;29;20027;-76
2022/07/10 12:54:35;;;;;;;10.93;4.00;;;10.50;99.90;;;;;;4958209;29;20019;-76
2022/07/10 12:57:06;;;;;;;9.57;3.55;;;10.60;99.90;;;;;;4958523;29;20408;-76
2022/07/10 12:59:35;;;;;;;9.27;3.20;;;10.50;99.90;;;;;;4958861;29;20488;-76